Time;durP1;ratioP1;P1;durP2;ratioP2;P2;SDS_P1;SDS_P2;PMS_P1;PMS_P2;Temp;Humidity;BMP_temperature;BMP_pressure;BME280_temperature;BME280_humidity;BME280_pressure;Samples;Min_cycle;Max_cycle;Signal;HPM_P1;HPM_P2
2022/01/04 00:01:37;;;;;;;5.80;4.23;;;5.00;99.90;;;;;;5030259;28;20468;-58
2022/01/04 00:04:04;;;;;;;4.37;3.97;;;4.90;99.90;;;;;;5030000;28;20496;-59
2022/01/04 00:06:33;;;;;;;3.77;3.47;;;4.50;99.90;;;;;;5025055;28;20491;-59
2022/01/04 00:09:02;;;;;;;4.50;3.67;;;4.50;99.90;;;;;;5033536;28;20544;-57
2022/01/04 00:11:44;;;;;;;3.60;3.30;;;4.50;99.90;;;;;;5032297;28;20445;-59
2022/01/04 00:14:12;;;;;;;2.17;1.50;;;4.50;99.90;;;;;;5032100;28;20454;-62
2022/01/04 00:16:39;;;;;;;1.93;1.37;;;4.40;99.90;;;;;;5033642;28;21017;-59
2022/01/04 00:19:06;;;;;;;2.13;1.37;;;4.40;99.90;;;;;;5036128;28;20946;-59
2022/01/04 00:21:34;;;;;;;2.60;1.60;;;4.40;99.90;;;;;;5026257;28;20610;-59
2022/01/04 00:24:02;;;;;;;4.30;3.33;;;4.50;99.90;;;;;;5034843;28;20489;-59
2022/01/04 00:26:29;;;;;;;4.70;3.70;;;4.50;99.90;;;;;;5037533;28;20487;-59
2022/01/04 00:28:56;;;;;;;5.30;3.90;;;4.60;99.90;;;;;;5028940;28;20473;-59
2022/01/04 00:31:24;;;;;;;3.27;2.60;;;4.30;99.90;;;;;;5025093;28;20473;-58
2022/01/04 00:33:51;;;;;;;7.70;3.80;;;4.40;99.90;;;;;;5032947;28;20532;-59
2022/01/04 00:36:18;;;;;;;5.37;4.20;;;4.40;99.90;;;;;;5038739;28;20424;-59
2022/01/04 00:38:47;;;;;;;4.27;3.20;;;4.40;99.90;;;;;;5032521;28;20988;-58
2022/01/04 00:41:14;;;;;;;3.27;2.53;;;4.20;99.90;;;;;;5037715;28;20481;-58
2022/01/04 00:43:44;;;;;;;4.53;3.10;;;4.00;99.90;;;;;;5034735;28;20461;-58
2022/01/04 00:46:16;;;;;;;4.20;1.90;;;4.10;99.90;;;;;;5034772;28;20574;-54
2022/01/04 00:51:27;;;;;;;5.27;4.77;;;4.00;99.90;;;;;;5035128;28;20532;-62
2022/01/04 00:53:56;;;;;;;4.13;3.67;;;4.00;99.90;;;;;;5032137;28;20476;-64
2022/01/04 00:56:23;;;;;;;3.97;3.57;;;4.10;99.90;;;;;;5034547;28;20471;-59
2022/01/04 00:58:50;;;;;;;3.53;2.97;;;4.10;99.90;;;;;;5037790;28;20491;-58
2022/01/04 01:01:17;;;;;;;3.47;3.17;;;4.10;99.90;;;;;;5030967;28;20520;-58
2022/01/04 01:03:44;;;;;;;3.37;3.03;;;4.20;99.90;;;;;;5033501;28;20960;-57
2022/01/04 01:06:11;;;;;;;3.20;2.90;;;4.20;99.90;;;;;;5033705;28;20608;-56
2022/01/04 01:08:38;;;;;;;3.00;2.30;;;4.20;99.90;;;;;;5026372;28;20510;-58
2022/01/04 01:11:08;;;;;;;6.13;3.07;;;4.30;99.90;;;;;;5030389;28;20454;-56
2022/01/04 01:13:35;;;;;;;4.67;3.80;;;4.30;99.90;;;;;;5033382;28;20458;-59
2022/01/04 01:16:03;;;;;;;6.87;3.67;;;4.20;99.90;;;;;;5031777;28;20447;-58
2022/01/04 01:18:30;;;;;;;3.97;3.00;;;4.00;99.90;;;;;;5023012;28;20520;-57
2022/01/04 01:20:56;;;;;;;2.50;1.90;;;3.70;99.90;;;;;;5032930;28;20476;-59
2022/01/04 01:23:24;;;;;;;4.30;3.50;;;3.70;99.90;;;;;;5030951;28;20490;-68
2022/01/04 01:25:51;;;;;;;4.43;3.93;;;3.80;99.90;;;;;;5031723;28;20918;-59
2022/01/04 01:28:20;;;;;;;4.83;3.20;;;3.90;99.90;;;;;;5029753;28;20463;-58
2022/01/04 01:30:47;;;;;;;4.63;4.13;;;4.00;99.90;;;;;;5025947;28;20525;-58
2022/01/04 01:33:14;;;;;;;5.63;4.40;;;4.00;99.90;;;;;;5032700;28;20533;-57
2022/01/04 01:35:42;;;;;;;4.20;3.50;;;4.10;99.90;;;;;;5032843;28;20474;-57
2022/01/04 01:38:10;;;;;;;3.63;3.33;;;4.10;99.90;;;;;;5031247;28;20482;-59
2022/01/04 01:40:40;;;;;;;5.77;4.30;;;4.10;99.90;;;;;;5035787;28;20470;-56
2022/01/04 01:43:07;;;;;;;4.20;3.60;;;4.10;99.90;;;;;;5032559;28;20534;-55
2022/01/04 01:45:36;;;;;;;5.33;4.80;;;4.10;99.90;;;;;;5032073;28;20515;-56
2022/01/04 01:48:04;;;;;;;3.97;3.47;;;4.20;99.90;;;;;;5032201;28;20533;-55
2022/01/04 01:50:31;;;;;;;2.97;2.50;;;4.20;99.90;;;;;;5030954;28;20483;-57
2022/01/04 01:52:58;;;;;;;2.80;2.40;;;4.20;99.90;;;;;;5031202;28;20475;-62
2022/01/04 01:55:26;;;;;;;3.27;2.90;;;4.30;99.90;;;;;;5031202;28;20501;-58
2022/01/04 01:57:53;;;;;;;5.87;3.60;;;4.30;99.90;;;;;;5065871;22;20940;-83
2022/01/04 02:00:22;;;;;;;5.67;3.70;;;4.40;99.90;;;;;;5052129;28;20467;-83
2022/01/04 02:02:50;;;;;;;5.40;4.20;;;4.40;99.90;;;;;;5051856;28;20478;-84
2022/01/04 02:05:17;;;;;;;4.30;3.90;;;4.40;99.90;;;;;;5051711;28;20511;-83
2022/01/04 02:07:45;;;;;;;4.57;3.70;;;4.30;99.90;;;;;;5052299;28;20477;-83
2022/01/04 02:10:13;;;;;;;3.70;3.30;;;4.20;99.90;;;;;;5051609;28;20478;-83
2022/01/04 02:12:44;;;;;;;4.77;3.40;;;4.30;99.90;;;;;;5051055;28;20889;-83
2022/01/04 02:15:13;;;;;;;3.37;2.30;;;4.20;99.90;;;;;;5046846;28;20870;-83
2022/01/04 02:17:40;;;;;;;3.03;2.70;;;4.00;99.90;;;;;;5049846;28;20529;-83
2022/01/04 02:20:10;;;;;;;3.00;2.33;;;3.90;99.90;;;;;;5052549;28;20473;-83
2022/01/04 02:22:37;;;;;;;2.40;2.20;;;4.00;99.90;;;;;;5057224;28;20487;-83
2022/01/04 02:25:05;;;;;;;2.13;1.93;;;4.00;99.90;;;;;;5051406;28;20492;-83
2022/01/04 02:27:34;;;;;;;2.70;2.40;;;4.10;99.90;;;;;;5041227;28;20566;-83
2022/01/04 02:30:02;;;;;;;3.70;3.40;;;4.20;99.90;;;;;;5051278;28;20797;-83
2022/01/04 02:32:29;;;;;;;3.90;2.90;;;4.20;99.90;;;;;;5050958;28;20493;-83
2022/01/04 02:34:56;;;;;;;3.90;2.37;;;4.20;99.90;;;;;;5047559;28;20479;-83
2022/01/04 02:37:26;;;;;;;2.30;2.10;;;3.90;99.90;;;;;;5059092;28;20478;-83
2022/01/04 02:39:54;;;;;;;3.03;2.00;;;3.80;99.90;;;;;;5053403;28;20474;-83
2022/01/04 02:42:22;;;;;;;2.00;1.40;;;3.90;99.90;;;;;;5055556;28;20498;-83
2022/01/04 02:44:49;;;;;;;2.60;2.20;;;4.00;99.90;;;;;;5051388;28;20474;-83
2022/01/04 02:47:17;;;;;;;3.97;3.57;;;4.10;99.90;;;;;;5051535;28;20521;-84
2022/01/04 02:49:44;;;;;;;7.30;4.07;;;4.20;99.90;;;;;;5050937;28;20490;-83
2022/01/04 02:52:11;;;;;;;4.50;2.97;;;3.90;99.90;;;;;;5051586;28;20500;-83
2022/01/04 02:54:39;;;;;;;4.00;3.60;;;3.70;99.90;;;;;;5051144;28;20491;-83
2022/01/04 02:57:07;;;;;;;4.80;3.03;;;3.80;99.90;;;;;;5051697;28;20507;-84
2022/01/04 02:59:33;;;;;;;3.53;2.83;;;3.80;99.90;;;;;;5051565;28;20488;-83
2022/01/04 03:02:00;;;;;;;3.20;2.90;;;3.90;99.90;;;;;;5050626;28;20479;-83
2022/01/04 03:04:27;;;;;;;1.70;1.60;;;4.00;99.90;;;;;;5053856;28;20640;-84
2022/01/04 03:06:54;;;;;;;4.10;1.90;;;4.00;99.90;;;;;;5052643;28;20519;-83
2022/01/04 03:09:21;;;;;;;2.30;1.83;;;4.10;99.90;;;;;;5055729;28;20467;-84
2022/01/04 03:11:50;;;;;;;2.57;1.87;;;4.20;99.90;;;;;;5056038;28;20455;-84
2022/01/04 03:14:17;;;;;;;2.70;2.07;;;4.20;99.90;;;;;;5058337;28;20504;-83
2022/01/04 03:16:44;;;;;;;2.03;1.53;;;4.30;99.90;;;;;;5057136;28;20536;-83
2022/01/04 03:19:11;;;;;;;3.67;3.37;;;4.30;99.90;;;;;;5055937;28;20528;-84
2022/01/04 03:21:40;;;;;;;3.10;2.40;;;4.30;99.90;;;;;;5055481;28;20833;-84
2022/01/04 03:24:10;;;;;;;4.40;2.67;;;4.30;99.90;;;;;;5054813;28;20980;-83
2022/01/04 03:26:37;;;;;;;3.67;3.20;;;4.30;99.90;;;;;;5056329;28;20525;-83
2022/01/04 03:29:07;;;;;;;4.60;3.50;;;4.30;99.90;;;;;;5053879;28;20536;-83
2022/01/04 03:31:35;;;;;;;4.60;3.87;;;4.10;99.90;;;;;;5055221;28;20583;-83
2022/01/04 03:34:02;;;;;;;4.23;3.80;;;3.90;99.90;;;;;;5055485;28;20482;-84
2022/01/04 03:36:29;;;;;;;3.20;2.83;;;3.80;99.90;;;;;;5055730;28;20932;-83
2022/01/04 03:38:57;;;;;;;4.70;2.93;;;3.90;99.90;;;;;;5054957;28;20939;-83
2022/01/04 03:41:26;;;;;;;2.53;2.33;;;3.90;99.90;;;;;;5054260;28;20518;-84
2022/01/04 03:43:54;;;;;;;3.00;2.70;;;3.90;99.90;;;;;;5059308;28;20441;-84
2022/01/04 03:46:22;;;;;;;3.67;2.87;;;3.90;99.90;;;;;;5058973;28;20712;-83
2022/01/04 03:48:50;;;;;;;5.20;4.10;;;4.00;99.90;;;;;;5058160;28;20494;-83
2022/01/04 03:51:17;;;;;;;4.73;3.87;;;4.00;99.90;;;;;;5059938;28;20445;-84
2022/01/04 03:53:44;;;;;;;3.57;3.27;;;3.80;99.90;;;;;;5063170;28;20459;-83
2022/01/04 03:56:11;;;;;;;3.80;2.97;;;3.90;99.90;;;;;;5058447;28;20473;-83
2022/01/04 03:58:38;;;;;;;2.73;2.30;;;3.90;99.90;;;;;;5056344;28;20941;-84
2022/01/04 04:01:05;;;;;;;3.73;2.57;;;3.90;99.90;;;;;;5059107;28;20434;-83
2022/01/04 04:03:34;;;;;;;2.83;2.03;;;3.90;99.90;;;;;;5056948;28;20520;-83
2022/01/04 04:06:01;;;;;;;2.97;2.67;;;4.00;99.90;;;;;;5057728;28;20474;-83
2022/01/04 04:08:28;;;;;;;3.00;2.27;;;3.90;99.90;;;;;;5053014;28;20465;-83
2022/01/04 04:10:55;;;;;;;3.20;2.53;;;4.00;99.90;;;;;;5057509;28;20471;-83
2022/01/04 04:13:22;;;;;;;5.63;3.60;;;4.00;99.90;;;;;;5056748;28;20495;-83
2022/01/04 04:15:49;;;;;;;3.30;2.93;;;4.00;99.90;;;;;;5057007;28;20508;-84
2022/01/04 04:18:17;;;;;;;4.43;3.00;;;4.00;99.90;;;;;;5054631;28;20441;-83
2022/01/04 04:20:46;;;;;;;4.00;2.70;;;4.00;99.90;;;;;;5059651;28;20458;-83
2022/01/04 04:23:13;;;;;;;3.57;2.30;;;3.80;99.90;;;;;;5055287;28;20973;-83
2022/01/04 04:25:40;;;;;;;4.33;2.80;;;3.80;99.90;;;;;;5057307;28;20506;-84
2022/01/04 04:28:07;;;;;;;5.97;3.80;;;3.80;99.90;;;;;;5052012;28;20513;-84
2022/01/04 04:30:34;;;;;;;3.80;3.40;;;3.70;99.90;;;;;;5055387;28;20515;-84
2022/01/04 04:33:01;;;;;;;3.60;2.60;;;3.80;99.90;;;;;;5054672;28;20459;-84
2022/01/04 04:35:29;;;;;;;5.10;3.97;;;3.90;99.90;;;;;;5057432;28;20467;-83
2022/01/04 04:37:58;;;;;;;5.20;4.23;;;4.00;99.90;;;;;;5055591;28;20471;-85
2022/01/04 04:40:25;;;;;;;4.00;3.60;;;4.10;99.90;;;;;;5055821;28;20532;-83
2022/01/04 04:42:53;;;;;;;4.33;3.70;;;4.00;99.90;;;;;;5049712;28;20469;-83
2022/01/04 04:45:20;;;;;;;3.77;3.00;;;4.10;99.90;;;;;;5056971;28;20471;-83
2022/01/04 04:47:47;;;;;;;7.60;3.73;;;4.10;99.90;;;;;;5054692;28;21010;-84
2022/01/04 04:50:14;;;;;;;3.10;2.90;;;4.10;99.90;;;;;;5059235;28;20996;-83
2022/01/04 04:52:41;;;;;;;3.97;3.37;;;4.20;99.90;;;;;;5056843;28;20493;-83
2022/01/04 04:55:11;;;;;;;3.20;2.80;;;4.10;99.90;;;;;;5057605;28;20465;-84
2022/01/04 04:57:38;;;;;;;6.63;2.73;;;4.10;99.90;;;;;;5053600;28;20529;-84
2022/01/04 05:00:08;;;;;;;2.70;2.50;;;4.10;99.90;;;;;;5054175;28;20822;-83
2022/01/04 05:02:35;;;;;;;3.50;2.53;;;4.20;99.90;;;;;;5055044;28;20481;-83
2022/01/04 05:05:02;;;;;;;2.67;1.90;;;4.20;99.90;;;;;;5057620;28;20439;-83
2022/01/04 05:07:29;;;;;;;2.80;2.50;;;4.20;99.90;;;;;;5054854;28;20513;-84
2022/01/04 05:09:56;;;;;;;2.03;1.83;;;4.20;99.90;;;;;;5048957;28;20488;-83
2022/01/04 05:12:24;;;;;;;3.13;1.93;;;4.30;99.90;;;;;;5053658;28;20480;-83
2022/01/04 05:14:51;;;;;;;1.53;1.07;;;4.30;99.90;;;;;;5053708;28;20475;-83
2022/01/04 05:17:18;;;;;;;2.30;1.00;;;4.30;99.90;;;;;;5076385;22;20523;-50
2022/01/04 05:19:45;;;;;;;1.07;1.03;;;4.30;99.90;;;;;;5049104;28;20887;-52
2022/01/04 05:22:12;;;;;;;1.93;1.17;;;4.40;99.90;;;;;;5051168;28;20470;-52
2022/01/04 05:24:39;;;;;;;2.00;1.30;;;4.30;99.90;;;;;;5050209;28;20480;-50
2022/01/04 05:27:06;;;;;;;2.60;1.23;;;4.40;99.90;;;;;;5050644;28;21023;-51
2022/01/04 05:29:35;;;;;;;1.40;1.30;;;4.40;99.90;;;;;;5080016;22;21079;-88
2022/01/04 05:32:02;;;;;;;1.90;1.50;;;4.50;99.90;;;;;;5059777;28;20449;-88
2022/01/04 05:34:29;;;;;;;1.20;1.10;;;4.50;99.90;;;;;;5059450;28;20514;-87
2022/01/04 05:36:56;;;;;;;1.67;1.57;;;4.50;99.90;;;;;;5057552;28;20471;-88
2022/01/04 05:39:23;;;;;;;3.10;1.20;;;4.30;99.90;;;;;;5059279;28;20999;-87
2022/01/04 05:41:50;;;;;;;1.57;1.30;;;4.10;99.90;;;;;;5063411;28;20480;-87
2022/01/04 05:44:17;;;;;;;1.63;1.23;;;4.30;99.90;;;;;;5066072;28;20454;-88
2022/01/04 05:46:46;;;;;;;2.53;2.07;;;4.30;99.90;;;;;;5059974;28;20483;-87
2022/01/04 05:49:13;;;;;;;4.03;3.10;;;4.40;99.90;;;;;;5057582;28;20792;-87
2022/01/04 05:51:41;;;;;;;1.83;1.20;;;4.40;99.90;;;;;;5057661;28;20459;-87
2022/01/04 05:54:08;;;;;;;1.70;1.60;;;4.20;99.90;;;;;;5058194;28;20460;-87
2022/01/04 05:56:35;;;;;;;1.70;1.53;;;4.10;99.90;;;;;;5057764;28;20473;-87
2022/01/04 05:59:02;;;;;;;2.50;1.60;;;4.20;99.90;;;;;;5057757;28;20506;-87
2022/01/04 06:01:29;;;;;;;1.80;1.70;;;4.20;99.90;;;;;;5056989;28;20506;-87
2022/01/04 06:03:58;;;;;;;2.90;2.53;;;4.30;99.90;;;;;;5070122;28;20430;-88
2022/01/04 06:06:25;;;;;;;3.83;3.33;;;4.40;99.90;;;;;;5076680;28;20471;-87
2022/01/04 06:08:52;;;;;;;2.50;1.93;;;4.40;99.90;;;;;;5055178;28;20888;-87
2022/01/04 06:11:56;;;;;;;2.83;1.97;;;4.40;99.90;;;;;;5052684;28;20487;-87
2022/01/04 06:17:13;;;;;;;6.40;4.57;;;4.40;99.90;;;;;;5039087;28;20578;-87
2022/01/04 06:19:41;;;;;;;5.07;3.70;;;4.30;99.90;;;;;;5051461;28;20479;-88
2022/01/04 06:22:09;;;;;;;5.33;4.27;;;4.20;99.90;;;;;;5057210;28;20528;-87
2022/01/04 06:24:37;;;;;;;6.03;5.07;;;4.20;99.90;;;;;;5058960;28;20458;-87
2022/01/04 06:27:08;;;;;;;5.30;4.57;;;4.20;99.90;;;;;;5054001;28;20511;-87
2022/01/04 06:29:36;;;;;;;4.20;3.80;;;4.30;99.90;;;;;;5053506;28;20541;-87
2022/01/04 06:32:04;;;;;;;5.67;3.87;;;4.20;99.90;;;;;;5054064;28;20475;-88
2022/01/04 06:34:31;;;;;;;4.20;3.20;;;3.80;99.90;;;;;;5056001;28;20458;-88
2022/01/04 06:36:59;;;;;;;2.40;2.20;;;3.50;99.90;;;;;;5061896;28;20501;-88
2022/01/04 06:39:26;;;;;;;2.43;2.20;;;3.70;99.90;;;;;;5063143;28;20468;-87
2022/01/04 06:41:54;;;;;;;3.10;2.80;;;3.80;99.90;;;;;;5057206;28;21017;-87
2022/01/04 06:44:21;;;;;;;4.60;3.20;;;3.70;99.90;;;;;;5056272;28;20943;-87
2022/01/04 06:46:48;;;;;;;5.13;4.07;;;3.80;99.90;;;;;;5055011;28;20892;-87
2022/01/04 06:49:15;;;;;;;7.53;6.30;;;3.90;99.90;;;;;;5056618;28;20853;-87
2022/01/04 06:51:43;;;;;;;6.40;5.13;;;4.00;99.90;;;;;;5055759;28;20462;-87
2022/01/04 06:54:13;;;;;;;7.83;7.00;;;3.80;99.90;;;;;;5055057;28;20446;-87
2022/01/04 06:56:40;;;;;;;8.07;7.20;;;3.80;99.90;;;;;;5057233;28;20468;-87
2022/01/04 06:59:08;;;;;;;4.80;4.23;;;3.80;99.90;;;;;;5057438;28;20486;-88
2022/01/04 07:01:35;;;;;;;4.70;3.57;;;3.60;99.90;;;;;;5067149;28;20454;-88
2022/01/04 07:04:02;;;;;;;8.10;5.87;;;3.60;99.90;;;;;;5069513;28;20448;-88
2022/01/04 07:06:30;;;;;;;10.37;6.90;;;3.70;99.90;;;;;;5071963;28;21034;-87
2022/01/04 07:08:57;;;;;;;6.10;5.20;;;3.80;99.90;;;;;;5064237;28;20545;-88
2022/01/04 07:11:26;;;;;;;4.00;3.60;;;3.90;99.90;;;;;;5068132;28;20455;-88
2022/01/04 07:13:53;;;;;;;13.13;3.10;;;3.70;99.90;;;;;;5052813;28;20456;-88
2022/01/04 07:16:20;;;;;;;11.77;8.97;;;3.80;99.90;;;;;;5060365;28;20532;-88
2022/01/04 07:18:48;;;;;;;6.00;5.30;;;3.90;99.90;;;;;;5060191;28;20774;-88
2022/01/04 07:21:16;;;;;;;8.93;6.17;;;4.00;99.90;;;;;;5058569;28;20464;-89
2022/01/04 07:23:43;;;;;;;9.03;7.37;;;4.10;99.90;;;;;;5058822;28;20446;-87
2022/01/04 07:26:11;;;;;;;8.80;7.67;;;4.10;99.90;;;;;;5059024;28;20509;-87
2022/01/04 07:28:40;;;;;;;8.80;7.10;;;4.20;99.90;;;;;;5062126;28;20478;-88
2022/01/04 07:31:08;;;;;;;6.30;5.83;;;4.10;99.90;;;;;;5057296;28;20487;-88
2022/01/04 07:33:35;;;;;;;7.07;5.20;;;4.10;99.90;;;;;;5065655;28;20493;-87
2022/01/04 07:36:02;;;;;;;4.30;3.90;;;4.10;99.90;;;;;;5057249;28;20524;-87
2022/01/04 07:38:29;;;;;;;3.87;3.43;;;4.10;99.90;;;;;;5058265;28;20898;-88
2022/01/04 07:40:56;;;;;;;5.07;4.23;;;4.20;99.90;;;;;;5059294;28;20506;-88
2022/01/04 07:43:23;;;;;;;5.20;4.20;;;4.00;99.90;;;;;;5056610;28;20452;-87
2022/01/04 07:45:52;;;;;;;14.97;11.47;;;4.10;99.90;;;;;;5059190;28;20459;-88
2022/01/04 07:48:19;;;;;;;23.50;15.57;;;4.00;99.90;;;;;;5062762;28;21013;-88
2022/01/04 07:50:46;;;;;;;15.13;11.80;;;4.10;99.90;;;;;;5061697;28;21038;-88
2022/01/04 07:53:14;;;;;;;8.90;7.27;;;4.20;99.90;;;;;;5059810;28;20498;-86
2022/01/04 07:55:41;;;;;;;10.23;7.13;;;4.20;99.90;;;;;;5054307;28;20454;-85
2022/01/04 07:58:08;;;;;;;9.13;7.23;;;4.10;99.90;;;;;;5053515;28;20447;-87
2022/01/04 08:00:35;;;;;;;9.50;8.50;;;4.20;99.90;;;;;;5054372;28;20476;-87
2022/01/04 08:03:06;;;;;;;8.10;6.50;;;4.30;99.90;;;;;;5054069;28;20455;-87
2022/01/04 08:05:34;;;;;;;6.87;5.53;;;4.00;99.90;;;;;;5053973;28;20463;-87
2022/01/04 08:08:01;;;;;;;11.40;7.10;;;4.20;99.90;;;;;;5053250;28;20469;-88
2022/01/04 08:10:28;;;;;;;8.67;7.70;;;4.30;99.90;;;;;;5062789;28;20498;-88
2022/01/04 08:12:55;;;;;;;8.70;7.00;;;4.30;99.90;;;;;;5055814;28;20448;-87
2022/01/04 08:15:23;;;;;;;9.00;7.23;;;4.40;99.90;;;;;;5054715;28;21010;-87
2022/01/04 08:17:50;;;;;;;7.30;6.47;;;4.40;99.90;;;;;;5053263;28;20526;-89
2022/01/04 08:20:18;;;;;;;5.90;4.97;;;4.20;99.90;;;;;;5053646;28;20453;-87
2022/01/04 08:22:45;;;;;;;7.77;4.63;;;4.00;99.90;;;;;;5055903;28;20476;-87
2022/01/04 08:25:13;;;;;;;4.77;4.30;;;4.00;99.90;;;;;;5057202;28;20493;-87
2022/01/04 08:27:40;;;;;;;9.80;7.73;;;4.10;99.90;;;;;;5054832;28;20537;-87
2022/01/04 08:30:10;;;;;;;7.83;7.07;;;4.20;99.90;;;;;;5057148;28;20455;-87
2022/01/04 08:32:38;;;;;;;8.33;5.93;;;4.00;99.90;;;;;;5059426;28;20504;-89
2022/01/04 08:35:06;;;;;;;4.93;4.47;;;4.00;99.90;;;;;;5065672;28;20811;-88
2022/01/04 08:37:34;;;;;;;6.47;5.50;;;4.10;99.90;;;;;;5064878;28;20513;-88
2022/01/04 08:40:01;;;;;;;7.23;6.30;;;4.10;99.90;;;;;;5066252;28;20481;-88
2022/01/04 08:42:28;;;;;;;8.10;7.40;;;4.10;99.90;;;;;;5065337;28;20510;-87
2022/01/04 08:44:56;;;;;;;7.50;6.80;;;4.20;99.90;;;;;;5066629;28;20947;-88
2022/01/04 08:47:23;;;;;;;7.17;6.47;;;4.30;99.90;;;;;;5068339;28;20849;-87
2022/01/04 08:49:51;;;;;;;5.97;5.00;;;4.30;99.90;;;;;;5058801;28;21127;-87
2022/01/04 08:52:18;;;;;;;7.03;6.33;;;4.40;99.90;;;;;;5064558;28;20454;-87
2022/01/04 08:54:47;;;;;;;8.47;6.33;;;4.50;99.90;;;;;;5058512;28;20442;-88
2022/01/04 08:57:14;;;;;;;9.63;6.53;;;4.40;99.90;;;;;;5057277;28;20865;-87
2022/01/04 08:59:41;;;;;;;6.93;5.30;;;4.40;99.90;;;;;;5060955;28;20447;-88
2022/01/04 09:02:08;;;;;;;1.70;1.60;;;4.50;99.90;;;;;;5056560;28;20514;-87
2022/01/04 09:04:35;;;;;;;2.60;2.40;;;4.60;99.90;;;;;;5057841;28;20444;-89
2022/01/04 09:07:02;;;;;;;3.80;2.63;;;4.60;99.90;;;;;;5057162;28;20517;-87
2022/01/04 09:09:29;;;;;;;9.70;8.70;;;4.70;99.90;;;;;;5057541;28;20490;-89
2022/01/04 09:11:58;;;;;;;12.60;9.77;;;4.80;99.90;;;;;;5055304;28;20504;-86
2022/01/04 09:14:29;;;;;;;12.33;9.73;;;4.70;99.90;;;;;;5056620;28;20861;-86
2022/01/04 09:19:41;;;;;;;15.30;11.63;;;4.40;99.90;;;;;;5056097;28;20525;-86
2022/01/04 09:22:08;;;;;;;11.37;9.70;;;4.50;99.90;;;;;;5055826;28;20460;-86
2022/01/04 09:24:35;;;;;;;13.87;10.20;;;4.60;99.90;;;;;;5056677;28;20869;-86
2022/01/04 09:27:06;;;;;;;13.43;9.80;;;4.70;99.90;;;;;;5055152;28;20830;-88
2022/01/04 09:29:33;;;;;;;6.57;5.00;;;4.60;99.90;;;;;;5053440;28;20491;-86
2022/01/04 09:32:02;;;;;;;6.40;5.30;;;4.70;99.90;;;;;;5055330;28;20500;-87
2022/01/04 09:34:29;;;;;;;4.23;3.83;;;4.70;99.90;;;;;;5055730;28;20444;-87
2022/01/04 09:36:57;;;;;;;12.70;11.50;;;4.80;99.90;;;;;;5054286;28;20464;-86
2022/01/04 09:39:25;;;;;;;15.30;11.30;;;4.70;99.90;;;;;;5052984;28;20452;-86
2022/01/04 09:41:55;;;;;;;21.03;13.70;;;4.50;99.90;;;;;;5068014;28;20446;-86
2022/01/04 09:44:25;;;;;;;17.10;12.10;;;4.60;99.90;;;;;;5055304;28;20444;-86
2022/01/04 09:46:52;;;;;;;10.67;9.17;;;4.70;99.90;;;;;;5054776;28;20990;-86
2022/01/04 09:49:20;;;;;;;9.30;8.40;;;4.60;99.90;;;;;;5059656;28;20573;-87
2022/01/04 09:51:49;;;;;;;10.70;9.03;;;4.60;99.90;;;;;;5053916;28;20927;-86
2022/01/04 09:54:20;;;;;;;10.73;9.67;;;4.70;99.90;;;;;;5054814;28;20482;-87
2022/01/04 09:56:48;;;;;;;9.70;8.70;;;4.70;99.90;;;;;;5054401;28;20468;-86
2022/01/04 09:59:16;;;;;;;10.93;8.40;;;4.70;99.90;;;;;;5053946;28;20481;-86
2022/01/04 10:01:50;;;;;;;6.67;5.97;;;4.70;99.90;;;;;;5053798;28;20462;-86
2022/01/04 10:04:17;;;;;;;7.20;6.50;;;4.80;99.90;;;;;;5055532;28;20440;-87
2022/01/04 10:07:01;;;;;;;6.87;6.17;;;4.80;99.90;;;;;;5058730;28;20526;-88
2022/01/04 10:09:37;;;;;;;7.20;5.73;;;4.90;99.90;;;;;;5056976;28;20998;-88
2022/01/04 10:12:07;;;;;;;8.13;4.70;;;5.00;99.90;;;;;;5063286;28;20471;-87
2022/01/04 10:14:36;;;;;;;4.87;4.47;;;5.10;99.90;;;;;;5056036;28;20543;-86
2022/01/04 10:17:07;;;;;;;8.50;7.30;;;5.10;99.90;;;;;;5054271;28;20472;-87
2022/01/04 10:19:37;;;;;;;8.00;7.27;;;5.20;99.90;;;;;;5055010;28;20445;-87
2022/01/04 10:22:16;;;;;;;9.80;7.47;;;5.30;99.90;;;;;;5057190;28;20431;-87
2022/01/04 10:24:44;;;;;;;7.90;7.10;;;5.30;99.90;;;;;;5053671;28;20483;-86
2022/01/04 10:27:29;;;;;;;8.77;6.10;;;4.90;99.90;;;;;;5053011;28;20995;-86
2022/01/04 10:30:14;;;;;;;8.77;7.27;;;5.10;99.90;;;;;;5056597;28;20469;-87
2022/01/04 10:32:51;;;;;;;8.60;7.70;;;5.10;99.90;;;;;;5056126;28;20440;-86
2022/01/04 10:35:35;;;;;;;8.77;7.07;;;5.20;99.90;;;;;;5054537;28;20445;-86
2022/01/04 10:38:11;;;;;;;8.37;7.00;;;5.20;99.90;;;;;;5053055;28;20437;-87
2022/01/04 10:40:38;;;;;;;11.40;10.20;;;5.20;99.90;;;;;;5053949;28;20864;-86
2022/01/04 10:43:11;;;;;;;11.40;9.97;;;5.20;99.90;;;;;;5053923;28;20457;-86
2022/01/04 10:45:40;;;;;;;8.33;7.47;;;5.20;99.90;;;;;;5076506;28;20439;-90
2022/01/04 10:48:15;;;;;;;9.00;8.20;;;5.20;99.90;;;;;;5062499;28;20505;-87
2022/01/04 10:50:43;;;;;;;11.60;9.17;;;4.90;99.90;;;;;;5054473;28;20451;-86
2022/01/04 10:53:16;;;;;;;9.47;8.27;;;5.00;99.90;;;;;;5057168;28;20449;-86
2022/01/04 10:55:44;;;;;;;12.53;10.30;;;5.10;99.90;;;;;;5052903;28;20865;-86
2022/01/04 10:58:25;;;;;;;12.57;10.17;;;5.20;99.90;;;;;;5051320;28;20441;-87
2022/01/04 11:00:57;;;;;;;11.20;10.07;;;5.20;99.90;;;;;;5050522;28;20537;-86
2022/01/04 11:03:31;;;;;;;13.30;9.33;;;5.30;99.90;;;;;;5051914;28;20457;-86
2022/01/04 11:06:01;;;;;;;13.43;12.00;;;5.30;99.90;;;;;;5051603;28;20462;-85
2022/01/04 11:08:29;;;;;;;8.47;7.60;;;5.40;99.90;;;;;;5053831;28;20867;-86
2022/01/04 11:10:56;;;;;;;8.70;6.90;;;5.40;99.90;;;;;;5051238;28;20462;-86
2022/01/04 11:13:23;;;;;;;8.90;8.10;;;5.40;99.90;;;;;;5052359;28;20456;-86
2022/01/04 11:15:51;;;;;;;8.37;7.57;;;5.50;99.90;;;;;;5053805;28;20466;-86
2022/01/04 11:18:18;;;;;;;11.73;8.47;;;5.50;99.90;;;;;;5054019;28;20506;-85
2022/01/04 11:20:48;;;;;;;8.60;7.67;;;5.60;99.90;;;;;;5051617;28;20861;-85
2022/01/04 11:23:16;;;;;;;12.93;11.57;;;5.60;99.90;;;;;;5050332;28;20503;-86
2022/01/04 11:25:46;;;;;;;20.33;18.20;;;5.60;99.90;;;;;;5053226;28;20476;-87
2022/01/04 11:28:16;;;;;;;9.17;7.43;;;5.70;99.90;;;;;;5051588;28;20461;-86
2022/01/04 11:31:16;;;;;;;8.30;7.40;;;5.80;99.90;;;;;;5050083;28;20445;-86
2022/01/04 11:33:51;;;;;;;10.70;9.03;;;5.90;99.90;;;;;;5037814;28;20449;-87
2022/01/04 11:36:21;;;;;;;13.53;12.10;;;5.90;99.90;;;;;;5118343;22;20531;-53
2022/01/04 11:38:49;;;;;;;21.87;15.50;;;5.90;99.90;;;;;;5043009;28;20501;-54
2022/01/04 11:41:22;;;;;;;16.20;13.63;;;6.00;99.90;;;;;;5033689;28;20565;-50
2022/01/04 11:43:53;;;;;;;15.13;11.53;;;6.00;99.90;;;;;;5032474;28;20445;-50
2022/01/04 11:46:34;;;;;;;9.80;8.90;;;6.00;99.90;;;;;;5038487;28;20474;-51
2022/01/04 11:49:10;;;;;;;11.03;9.43;;;6.10;99.90;;;;;;5030391;28;20522;-50
2022/01/04 11:51:41;;;;;;;13.17;11.20;;;6.10;99.90;;;;;;5029056;28;20488;-49
2022/01/04 11:54:20;;;;;;;55.37;37.03;;;6.10;99.90;;;;;;5029704;28;20574;-49
2022/01/04 11:56:49;;;;;;;43.43;31.20;;;6.20;99.90;;;;;;5029209;28;20481;-49
2022/01/04 11:59:20;;;;;;;17.87;13.80;;;6.20;99.90;;;;;;5028849;28;20497;-49
2022/01/04 12:01:47;;;;;;;24.60;14.00;;;6.20;99.90;;;;;;5030322;28;20521;-48
2022/01/04 12:04:38;;;;;;;18.77;13.00;;;6.20;99.90;;;;;;5032444;28;20453;-48
2022/01/04 12:07:07;;;;;;;13.03;9.87;;;6.20;99.90;;;;;;5027019;28;20500;-50
2022/01/04 12:09:34;;;;;;;10.30;8.00;;;6.20;99.90;;;;;;5032882;28;20521;-49
2022/01/04 12:12:01;;;;;;;16.07;14.47;;;6.10;99.90;;;;;;5032097;28;20477;-49
2022/01/04 12:14:28;;;;;;;13.23;11.83;;;6.10;99.90;;;;;;5032698;28;20512;-50
2022/01/04 12:17:04;;;;;;;10.27;8.73;;;6.20;99.90;;;;;;5032862;28;20537;-49
2022/01/04 12:19:46;;;;;;;9.90;9.00;;;6.20;99.90;;;;;;5039271;28;20477;-49
2022/01/04 12:22:30;;;;;;;9.13;8.10;;;6.30;99.90;;;;;;5033512;28;20445;-49
2022/01/04 12:25:04;;;;;;;8.43;7.57;;;6.40;99.90;;;;;;5029393;28;20453;-51
2022/01/04 12:27:31;;;;;;;11.20;8.13;;;6.40;99.90;;;;;;5032350;28;20477;-48
2022/01/04 12:30:22;;;;;;;9.73;8.40;;;6.50;99.90;;;;;;5037840;28;20511;-49
2022/01/04 12:32:49;;;;;;;9.17;8.17;;;6.50;99.90;;;;;;5028357;28;20450;-49
2022/01/04 12:35:17;;;;;;;14.43;8.43;;;6.50;99.90;;;;;;5035923;28;20959;-49
2022/01/04 12:37:45;;;;;;;11.17;8.93;;;6.50;99.90;;;;;;5041005;28;20453;-48
2022/01/04 12:40:12;;;;;;;6.50;5.90;;;6.40;99.90;;;;;;5034292;28;20497;-49
2022/01/04 12:42:42;;;;;;;11.97;9.20;;;6.50;99.90;;;;;;5033181;28;21162;-49
2022/01/04 12:45:12;;;;;;;10.93;7.90;;;6.60;99.90;;;;;;5032270;28;20449;-49
2022/01/04 12:47:39;;;;;;;14.03;11.63;;;6.60;99.90;;;;;;5032602;28;20516;-50
2022/01/04 12:50:07;;;;;;;15.77;13.07;;;6.60;99.90;;;;;;5032894;28;20513;-51
2022/01/04 12:52:34;;;;;;;16.17;12.57;;;6.50;99.90;;;;;;5032742;28;20506;-47
2022/01/04 12:55:10;;;;;;;10.53;9.43;;;6.60;99.90;;;;;;5032480;28;20946;-50
2022/01/04 12:57:37;;;;;;;27.33;19.40;;;6.60;99.90;;;;;;5032423;28;20481;-50
2022/01/04 13:00:08;;;;;;;12.57;9.60;;;6.60;99.90;;;;;;5032404;28;20485;-51
2022/01/04 13:02:35;;;;;;;34.70;23.00;;;6.60;99.90;;;;;;5031920;28;20956;-49
2022/01/04 13:05:05;;;;;;;67.27;34.60;;;6.60;99.90;;;;;;5033783;28;20472;-49
2022/01/04 13:07:34;;;;;;;22.77;15.70;;;6.70;99.90;;;;;;5034737;28;20524;-50
2022/01/04 13:10:09;;;;;;;12.03;9.40;;;6.70;99.90;;;;;;5032385;28;20518;-49